Latest Weather Observations for Walgett

IDN60801

Issued at 7:16 pm EDT Saturday 31 January 2015 (issued every 30 minutes, with the page automatically refreshed every 10 minutes)

About weather observations | Map of weather stations | Latest weather observations for NSW | Other Formats
Station Details ID: 052088 Name: WALGETT AIRPORT AWS Lat: -30.04 Lon: 148.12 Height: 133.0 m
Data from the previous 72 hours. | See also: Recent months at Walgett
Date/Time
EDT
Temp
°C
App
Temp
°C
Dew
Point
Rel
Hum
%
Delta-T
°C
Wind Press
QNH
hPa
Press
MSL
hPa
Rain
since 9 am
mm
Dir
 
Spd
km/h
Gust
km/h
Spd
kts
Gust
kts
31/07:00pm 30.3 25.0 1.7 16 14.2 SW 19 28 10 15 1006.4 1005.6 0.0
31/06:30pm 30.7 24.3 1.1 15 14.6 SW 24 33 13 18 1006.3 1005.5 0.0
31/06:00pm 31.2 25.3 1.5 15 14.8 WSW 22 33 12 18 1006.0 1005.2 0.0
31/05:30pm 31.7 26.2 1.9 15 15.0 SW 20 28 11 15 1006.0 1005.2 0.0
31/05:00pm 31.1 25.4 0.5 14 15.0 SW 20 32 11 17 1006.2 1005.4 0.0
31/04:30pm 31.6 25.6 0.9 14 15.2 SW 22 35 12 19 1006.5 1005.7 0.0
31/04:00pm 31.2 24.7 0.6 14 15.0 SW 24 37 13 20 1006.7 1005.9 0.0
31/03:30pm 31.0 24.8 -0.6 13 15.2 WSW 22 32 12 17 1006.6 1005.8 0.0
31/03:00pm 31.2 26.5 0.6 14 15.0 SSW 15 22 8 12 1007.0 1006.2 0.0
31/02:30pm 30.3 24.5 -0.1 14 14.6 WSW 20 32 11 17 1007.4 1006.6 0.0
31/02:00pm 30.7 24.2 0.2 14 14.8 WSW 24 35 13 19 1007.6 1006.8 0.0
31/01:30pm 29.7 24.1 1.2 16 14.0 SW 20 32 11 17 1007.8 1007.0 0.0
31/01:00pm 29.7 23.0 1.2 16 14.0 SW 26 35 14 19 1008.3 1007.5 0.0
31/12:30pm 29.1 22.7 0.7 16 13.7 WSW 24 33 13 18 1008.5 1007.7 0.0
31/12:00pm 29.0 23.4 1.5 17 13.5 SW 20 32 11 17 1008.8 1008.0 0.0
31/11:30am 28.2 23.5 0.9 17 13.2 SSW 15 26 8 14 1009.1 1008.3 0.0
31/11:00am 27.6 22.7 1.9 19 12.6 SSW 17 28 9 15 1009.2 1008.4 0.0
31/10:30am 26.8 22.4 2.7 21 11.9 S 15 20 8 11 1009.5 1008.6 0.0
31/10:00am 26.1 21.4 3.4 23 11.3 S 17 22 9 12 1009.5 1008.6 0.0
31/09:30am 24.7 19.8 3.9 26 10.3 S 19 24 10 13 1009.5 1008.6 0.0
31/08:30am 19.9 16.8 5.5 39 7.1 SSW 11 15 6 8 1009.3 1008.5 0.0
31/08:00am 17.8 14.9 4.7 42 6.3 SSW 9 13 5 7 1009.2 1008.4 0.0
31/07:30am 16.0 14.8 4.7 47 5.4 CALM 0 0 0 0 1009.0 1008.2 0.0
31/07:00am 13.2 12.3 5.9 61 3.5 CALM 0 0 0 0 1008.5 1007.7 0.0
31/06:30am 14.0 11.4 4.0 51 4.6 SW 7 9 4 5 1008.0 1007.2 0.0
31/06:00am 14.2 11.3 4.5 52 4.5 SSW 9 11 5 6 1007.7 1006.9 0.0
31/05:30am 14.3 11.7 4.0 50 4.8 SSW 7 11 4 6 1007.4 1006.6 0.0
31/05:00am 14.6 12.1 4.6 51 4.7 SSW 7 9 4 5 1007.3 1006.5 0.0
31/04:30am 15.0 12.5 4.7 50 4.8 SSW 7 9 4 5 1007.2 1006.4 0.0
31/04:23am 15.3 12.5 5.2 51 4.8 SSW 9 13 5 7 1007.2 1006.4 0.0
31/04:00am 15.0 12.2 5.2 52 4.7 SW 9 11 5 6 1007.1 1006.3 0.0
31/03:30am 16.1 13.7 5.1 48 5.3 SSW 7 9 4 5 1006.9 1006.1 0.0
31/03:00am 15.9 13.6 5.8 51 4.9 SSW 7 9 4 5 1007.0 1006.2 0.0
31/02:30am 16.5 14.4 5.8 49 5.2 SSW 6 7 3 4 1007.0 1006.2 0.0
31/02:00am 17.2 14.9 5.8 47 5.6 SSW 7 7 4 4 1007.0 1006.2 0.0
31/01:30am 18.5 15.5 4.3 39 6.8 S 9 11 5 6 1007.2 1006.4 0.0
31/01:00am 18.9 16.0 4.7 39 6.9 S 9 13 5 7 1007.3 1006.5 0.0
31/12:30am 19.8 16.5 4.7 37 7.4 S 11 15 6 8 1007.4 1006.6 0.0
31/12:00am 21.1 17.0 4.6 34 8.1 SSE 15 15 8 8 1007.4 1006.6 0.0
 
Date/Time
EDT
Temp
°C
App
Temp
°C
Dew
Point
Rel
Hum
%
Delta-T
°C
Wind Press
QNH
hPa
Press
MSL
hPa
Rain
since 9 am
mm
Dir
 
Spd
km/h
Gust
km/h
Spd
kts
Gust
kts
30/11:30pm 22.4 18.8 4.9 32 8.7 SSE 13 17 7 9 1007.3 1006.5 0.0
30/11:00pm 22.5 18.6 5.4 33 8.6 S 15 19 8 10 1007.1 1006.3 0.0
30/10:30pm 22.9 19.6 6.2 34 8.6 S 13 15 7 8 1006.9 1006.1 0.0
30/10:00pm 24.6 20.9 6.4 31 9.5 S 15 17 8 9 1006.6 1005.8 0.0
30/09:30pm 26.0 22.5 7.1 30 10.0 S 15 22 8 12 1006.3 1005.5 0.0
30/09:00pm 26.4 24.0 6.9 29 10.4 SSW 9 11 5 6 1005.9 1005.0 0.0
30/08:30pm 28.3 25.0 6.4 25 11.6 SSW 13 20 7 11 1005.6 1004.7 0.0
30/08:00pm 29.6 26.3 6.3 23 12.5 SSW 13 19 7 10 1005.4 1004.5 0.0
30/07:30pm 30.5 26.3 5.7 21 13.2 SW 17 22 9 12 1005.2 1004.3 0.0
30/07:00pm 31.5 27.8 6.5 21 13.6 SSW 15 24 8 13 1005.1 1004.2 0.0
30/06:30pm 31.6 27.1 5.9 20 13.8 SW 19 28 10 15 1005.0 1004.1 0.0
30/06:00pm 32.1 28.4 6.3 20 14.0 SW 15 22 8 12 1005.0 1004.1 0.0
30/05:30pm 32.1 27.5 5.6 19 14.2 SW 19 32 10 17 1005.1 1004.2 0.0
30/05:00pm 32.0 27.4 5.5 19 14.2 W 19 32 10 17 1005.3 1004.4 0.0
30/04:30pm 32.0 28.1 7.0 21 13.7 SW 17 32 9 17 1005.7 1004.8 0.0
30/04:00pm 33.0 29.1 7.1 20 14.3 WSW 17 28 9 15 1005.9 1005.0 0.0
30/03:30pm 32.6 28.4 7.4 21 13.9 WSW 19 32 10 17 1006.3 1005.5 0.0
30/03:00pm 31.6 27.9 7.9 23 13.2 W 17 28 9 15 1006.7 1005.9 0.0
30/02:30pm 31.7 25.9 8.0 23 13.2 W 28 39 15 21 1007.2 1006.4 0.0
30/02:00pm 31.5 27.1 7.2 22 13.3 SW 20 35 11 19 1007.6 1006.8 0.0
30/01:30pm 30.4 26.4 8.2 25 12.3 SW 19 30 10 16 1008.1 1007.3 0.0
30/01:00pm 30.1 28.1 8.5 26 12.0 S 9 19 5 10 1008.5 1007.7 0.0
30/12:30pm 29.8 27.2 9.3 28 11.5 SSW 13 20 7 11 1009.0 1008.2 0.0
30/12:00pm 28.6 26.5 8.3 28 11.2 S 9 15 5 8 1009.3 1008.5 0.0
30/11:30am 27.8 25.7 8.1 29 10.7 SW 9 19 5 10 1009.8 1008.9 0.0
30/11:00am 27.6 26.1 9.0 31 10.3 SSE 7 11 4 6 1010.0 1009.1 0.0
30/10:30am 26.5 25.4 9.8 35 9.3 ENE 6 7 3 4 1010.1 1009.2 0.0
30/10:00am 25.4 24.0 8.8 35 9.0 E 6 9 3 5 1010.2 1009.3 0.0
30/09:30am 24.0 22.9 10.7 43 7.4 E 7 9 4 5 1010.2 1009.3 0.0
30/09:00am 22.6 21.9 11.4 49 6.3 ENE 6 9 3 5 1010.3 1009.4 0.0
30/08:30am 21.2 19.9 10.1 49 6.0 E 7 9 4 5 1010.3 1009.4 0.0
30/08:00am 18.4 18.6 10.7 61 4.2 CALM 0 0 0 0 1010.0 1009.1 0.0
30/07:30am 16.6 17.4 12.4 76 2.3 CALM 0 0 0 0 1009.9 1009.0 0.0
30/07:00am 14.7 14.9 11.7 82 1.6 ENE 2 6 1 3 1009.5 1008.6 0.0
30/06:30am 13.7 12.6 10.7 82 1.6 SSE 7 9 4 5 1009.0 1008.2 0.0
30/06:00am 13.9 14.0 10.3 79 1.9 CALM 0 0 0 0 1008.7 1007.9 0.0
30/05:30am 14.0 14.3 11.0 82 1.6 CALM 0 0 0 0 1008.6 1007.8 0.0
30/05:00am 14.4 14.8 11.2 81 1.7 CALM 0 0 0 0 1008.5 1007.7 0.0
30/04:30am 14.8 15.2 11.2 79 1.9 CALM 0 0 0 0 1008.5 1007.7 0.0
30/04:00am 15.1 15.0 10.9 76 2.2 S 2 6 1 3 1008.6 1007.8 0.0
30/03:30am 15.3 14.3 11.1 76 2.3 S 7 7 4 4 1008.8 1008.0 0.0
30/03:00am 15.9 15.0 10.7 71 2.8 SE 6 6 3 3 1008.8 1008.0 0.0
30/02:30am 16.5 15.8 9.9 65 3.5 SE 4 6 2 3 1009.1 1008.3 0.0
30/02:00am 17.1 16.3 11.2 68 3.2 SE 6 6 3 3 1009.5 1008.6 0.0
30/01:30am 17.8 16.7 10.7 63 3.8 SE 7 9 4 5 1009.8 1008.9 0.0
30/01:00am 18.5 18.6 10.3 59 4.4 CALM 0 2 0 1 1009.9 1009.0 0.0
30/12:30am 18.3 17.5 11.8 66 3.6 ESE 7 9 4 5 1010.1 1009.2 0.0
30/12:00am 18.8 18.2 11.6 63 4.0 SSE 6 7 3 4 1010.2 1009.3 0.0
 
Date/Time
EDT
Temp
°C
App
Temp
°C
Dew
Point
Rel
Hum
%
Delta-T
°C
Wind Press
QNH
hPa
Press
MSL
hPa
Rain
since 9 am
mm
Dir
 
Spd
km/h
Gust
km/h
Spd
kts
Gust
kts
29/11:30pm 19.9 19.1 11.1 57 4.8 ESE 6 6 3 3 1010.2 1009.3 0.0
29/11:00pm 20.2 19.3 10.6 54 5.3 ESE 6 7 3 4 1010.2 1009.3 0.0
29/10:30pm 22.0 20.4 10.2 47 6.5 ESE 9 9 5 5 1010.2 1009.3 0.0
29/10:00pm 22.9 20.9 10.0 44 7.1 ESE 11 13 6 7 1010.1 1009.2 0.0
29/09:30pm 22.8 21.2 10.3 45 6.9 SSE 9 11 5 6 1010.0 1009.1 0.0
29/09:00pm 23.3 21.4 10.4 44 7.2 SSE 11 13 6 7 1009.9 1009.0 0.0
29/08:30pm 25.3 22.0 9.6 37 8.7 SSE 17 19 9 10 1009.7 1008.8 0.0
29/08:00pm 26.8 22.8 9.2 33 9.7 S 20 26 11 14 1009.5 1008.6 0.0
29/07:30pm 27.7 24.3 9.0 31 10.3 SSE 17 24 9 13 1009.0 1008.2 0.0
29/07:00pm 28.8 23.3 9.0 29 11.0 S 28 33 15 18 1008.8 1008.0 0.0
29/06:30pm 28.4 23.0 8.1 28 11.1 S 26 37 14 20 1008.5 1007.7 0.0
29/06:00pm 29.3 23.6 8.4 27 11.6 SSW 28 41 15 22 1008.3 1007.5 0.0
29/05:30pm 29.7 24.1 8.7 27 11.7 SSW 28 39 15 21 1008.5 1007.7 0.0
29/05:00pm 29.2 23.0 7.7 26 11.7 S 30 43 16 23 1008.7 1007.9 0.0
29/04:34pm 30.4 26.5 9.3 27 11.9 S 20 43 11 23 1008.9 1008.1 0.0
29/04:30pm 29.5 25.0 8.5 27 11.6 S 22 37 12 20 1008.9 1008.1 0.0
29/04:00pm 30.3 24.7 8.7 26 12.1 SSW 28 39 15 21 1009.2 1008.4 0.0
29/03:30pm 30.0 24.3 8.4 26 12.0 SSW 28 37 15 20 1009.6 1008.7 0.0
29/03:00pm 30.1 26.7 10.6 30 11.2 SSE 19 28 10 15 1009.8 1008.9 0.0
29/02:30pm 28.7 24.9 8.9 29 11.0 SSE 19 33 10 18 1010.2 1009.3 0.0
29/02:00pm 27.7 25.5 10.9 35 9.6 SSE 13 20 7 11 1010.5 1009.6 0.0
29/01:30pm 27.4 25.1 10.6 35 9.5 SE 13 26 7 14 1011.1 1010.2 0.0
29/01:00pm 26.8 25.7 13.2 43 8.0 SSE 11 19 6 10 1011.5 1010.6 0.0
29/12:30pm 25.0 24.6 14.2 51 6.4 SSE 9 17 5 9 1011.9 1011.0 0.0
29/12:00pm 24.3 23.6 13.2 50 6.5 E 9 15 5 8 1012.2 1011.3 0.0
29/11:30am 23.6 23.0 13.5 53 5.9 SSE 9 15 5 8 1012.5 1011.6 0.0
29/11:00am 23.1 22.6 13.8 55 5.5 ESE 9 17 5 9 1012.7 1011.9 0.0
29/10:30am 22.0 20.3 13.6 59 4.9 ESE 15 20 8 11 1012.9 1012.1 0.0
29/10:00am 21.3 19.8 14.2 64 4.2 ESE 15 20 8 11 1012.7 1011.9 0.0
29/09:30am 20.7 19.2 14.1 66 3.8 ESE 15 20 8 11 1012.7 1011.9 0.0
29/09:00am 19.2 17.4 13.4 69 3.3 ESE 15 22 8 12 1012.8 1012.0 17.2
29/08:30am 18.2 16.1 13.5 74 2.7 SE 17 20 9 11 1012.6 1011.7 17.2
29/08:00am 17.0 15.8 12.7 76 2.4 SE 11 15 6 8 1012.3 1011.4 17.2
29/07:30am 16.0 14.6 12.2 78 2.1 SE 11 15 6 8 1012.1 1011.2 17.2
29/07:00am 14.8 13.8 12.3 85 1.4 SE 9 11 5 6 1011.7 1010.8 17.2
29/06:30am 14.0 12.9 11.9 87 1.1 SE 9 13 5 7 1011.2 1010.3 17.2
29/06:00am 14.1 13.2 11.4 84 1.4 SE 7 11 4 6 1010.9 1010.0 17.2
29/05:30am 15.2 13.8 12.1 82 1.7 SE 11 15 6 8 1010.7 1009.8 17.2
29/05:00am 15.0 13.5 12.0 82 1.6 SE 11 15 6 8 1010.5 1009.6 17.2
29/04:30am 15.6 14.1 12.0 79 2.0 SE 11 15 6 8 1010.1 1009.2 17.2
29/04:00am 16.1 14.3 12.1 77 2.2 SE 13 17 7 9 1010.0 1009.1 17.2
29/03:30am 16.0 14.3 12.4 79 2.0 SSE 13 19 7 10 1010.1 1009.2 17.2
29/03:00am 15.6 14.3 12.4 81 1.8 SSE 11 13 6 7 1010.3 1009.4 17.2
29/02:30am 15.8 14.1 12.5 81 1.8 SSE 13 15 7 8 1010.5 1009.6 17.2
29/02:00am 15.7 14.6 13.2 85 1.4 SSE 11 13 6 7 1010.6 1009.7 17.2
29/01:30am 16.3 16.0 13.2 82 1.7 SE 7 9 4 5 1010.9 1010.0 17.2
29/01:00am 16.4 15.0 13.3 82 1.7 SSE 13 15 7 8 1011.2 1010.3 17.2
29/12:30am 17.8 16.7 13.1 74 2.7 SE 11 13 6 7 1011.1 1010.2 17.2
29/12:00am 18.0 17.0 13.3 74 2.7 SE 11 15 6 8 1011.1 1010.2 17.2
 
Date/Time
EDT
Temp
°C
App
Temp
°C
Dew
Point
Rel
Hum
%
Delta-T
°C
Wind Press
QNH
hPa
Press
MSL
hPa
Rain
since 9 am
mm
Dir
 
Spd
km/h
Gust
km/h
Spd
kts
Gust
kts
28/11:30pm 18.6 17.6 13.5 72 2.9 SE 11 15 6 8 1011.1 1010.2 17.2
28/11:00pm 19.3 18.0 13.7 70 3.2 ESE 13 19 7 10 1010.9 1010.0 17.2
28/10:30pm 19.5 18.7 13.9 70 3.2 ESE 11 13 6 7 1010.9 1010.0 17.2
28/10:00pm 20.2 19.0 13.9 67 3.7 ESE 13 15 7 8 1010.7 1009.8 17.2
28/09:30pm 20.4 19.1 14.7 70 3.4 SE 15 20 8 11 1010.5 1009.6 17.2
28/09:00pm 20.4 20.4 16.2 77 2.5 SE 11 15 6 8 1010.0 1009.1 17.2
28/08:30pm 19.8 19.2 16.6 82 1.9 E 15 20 8 11 1009.3 1008.5 17.2
28/08:04pm 18.5 12.8 15.2 81 1.9 E 39 56 21 30 1008.9 1008.1 17.2
28/08:02pm 18.4 11.8 14.9 80 2.0 ESE 43 65 23 35 1008.9 1008.1 17.2
28/08:00pm 18.2 11.3 14.5 79 2.2 ESE 44 65 24 35 1008.9 1008.1 17.2
28/07:49pm 18.5 16.2 15.7 84 1.7 SE 22 50 12 27 1009.2 1008.4 17.2
28/07:48pm 18.6 17.1 16.4 87 1.3 SSE 19 43 10 23 1009.2 1008.4 17.2
28/07:39pm 18.5 15.2 17.0 91 0.9 SSW 30 57 16 31 1009.6 1008.7 14.8
28/07:30pm 18.4 13.8 16.0 86 1.4 S 35 63 19 34 1009.1 1008.3 4.2
28/07:27pm 19.9 17.5 16.3 80 2.2 SSE 24 56 13 30 1008.7 1007.9 1.8
28/07:26pm 21.7 20.7 17.9 79 2.4 SE 20 56 11 30 1008.5 1007.7 1.4
28/07:24pm 22.6 22.5 17.9 75 2.9 SE 15 41 8 22 1008.3 1007.5 1.2
28/07:07pm 22.7 20.0 17.6 73 3.2 SSE 28 39 15 21 1007.5 1006.7 0.8

Other Formats:

Comma delimited format used in spreadsheet applications
http://www.bom.gov.au/fwo/IDN60801/IDN60801.95715.axf

JavaScript Object Notation format (JSON) in row-major order
http://www.bom.gov.au/fwo/IDN60801/IDN60801.95715.json